Time;durP1;ratioP1;P1;durP2;ratioP2;P2;SDS_P1;SDS_P2;PMS_P1;PMS_P2;Temp;Humidity;BMP_temperature;BMP_pressure;BME280_temperature;BME280_humidity;BME280_pressure;Samples;Min_cycle;Max_cycle;Signal;HPM_P1;HPM_P2
2022/06/03 00:02:34;;;;;;;7.38;4.47;;;;;;;11.82;65.00;99831.13;5010582;28;20034;-74
2022/06/03 00:05:17;;;;;;;7.50;3.80;;;;;;;11.82;64.46;99836.41;5010350;28;20109;-75
2022/06/03 00:08:08;;;;;;;5.38;4.20;;;;;;;11.81;64.93;99836.47;4992112;28;20061;-74
2022/06/03 00:10:51;;;;;;;7.20;3.53;;;;;;;11.78;64.97;99837.50;4992736;28;20061;-76
2022/06/03 00:13:31;;;;;;;6.82;4.00;;;;;;;11.70;65.61;99834.41;4997171;28;20351;-75
2022/06/03 00:16:27;;;;;;;5.32;3.10;;;;;;;11.66;65.14;99832.00;4990458;28;20030;-75
2022/06/03 00:19:11;;;;;;;5.93;3.95;;;;;;;11.60;65.44;99828.75;4990805;28;20123;-74
2022/06/03 00:22:08;;;;;;;4.95;3.60;;;;;;;11.57;65.45;99820.16;4992912;28;20117;-75
2022/06/03 00:24:46;;;;;;;4.38;3.33;;;;;;;11.49;65.85;99828.47;4981923;28;20030;-75
2022/06/03 00:27:29;;;;;;;5.38;3.50;;;;;;;11.41;65.86;99822.75;4990914;28;20045;-76
2022/06/03 00:30:17;;;;;;;5.25;3.70;;;;;;;11.36;65.78;99824.78;4991644;28;20035;-76
2022/06/03 00:33:23;;;;;;;6.70;4.03;;;;;;;11.26;66.84;99821.75;4990577;28;20046;-76
2022/06/03 00:36:11;;;;;;;5.53;3.00;;;;;;;11.21;66.97;99823.78;4990262;28;20042;-75
2022/06/03 00:38:55;;;;;;;4.63;3.63;;;;;;;11.17;67.45;99825.72;4979556;28;20034;-75
2022/06/03 00:41:32;;;;;;;5.38;3.50;;;;;;;11.15;67.20;99826.75;4991149;28;20030;-76
2022/06/03 00:44:22;;;;;;;7.50;3.53;;;;;;;11.10;67.61;99832.25;4990932;28;20026;-75
2022/06/03 00:47:02;;;;;;;3.83;3.42;;;;;;;11.09;67.73;99827.88;4989541;28;20038;-75
2022/06/03 00:49:58;;;;;;;4.88;3.40;;;;;;;11.10;67.41;99818.19;4990337;28;20034;-74
2022/06/03 00:52:36;;;;;;;5.00;3.35;;;;;;;10.96;68.00;99819.75;4990029;28;20498;-75
2022/06/03 00:55:23;;;;;;;9.02;3.47;;;;;;;10.91;68.02;99821.75;4990325;28;20049;-74
2022/06/03 00:57:54;;;;;;;3.85;3.25;;;;;;;10.92;68.13;99826.09;4989421;28;20762;-74
2022/06/03 01:00:22;;;;;;;3.65;3.20;;;;;;;10.90;67.95;99812.16;4983561;28;20247;-76
2022/06/03 01:03:09;;;;;;;5.72;3.83;;;;;;;10.87;68.38;99811.44;4990208;28;20104;-74
2022/06/03 01:05:49;;;;;;;4.47;2.88;;;;;;;10.84;68.35;99815.06;4992679;28;20039;-73
2022/06/03 01:08:39;;;;;;;5.57;3.88;;;;;;;10.77;69.03;99813.66;4990197;28;20072;-73
2022/06/03 01:11:56;;;;;;;6.40;4.18;;;;;;;10.65;69.30;99816.91;5010130;28;20166;-74
2022/06/03 01:14:30;;;;;;;4.53;3.78;;;;;;;10.62;69.00;99810.00;4991600;28;20038;-74
2022/06/03 01:17:01;;;;;;;6.15;3.45;;;;;;;10.56;68.82;99804.19;5008830;28;20188;-74
2022/06/03 01:19:39;;;;;;;5.68;4.50;;;;;;;10.56;69.10;99809.44;4991891;28;20592;-74
2022/06/03 01:22:52;;;;;;;4.68;3.83;;;;;;;10.49;69.45;99804.50;5010235;28;20041;-75
2022/06/03 01:25:29;;;;;;;5.57;3.22;;;;;;;10.38;70.18;99801.50;5009269;28;20064;-74
2022/06/03 01:28:33;;;;;;;7.03;3.17;;;;;;;10.40;69.91;99797.03;4991094;28;20389;-74
2022/06/03 01:31:22;;;;;;;4.80;3.72;;;;;;;10.38;70.10;99801.50;4939417;28;20041;-73
2022/06/03 01:34:09;;;;;;;7.60;4.43;;;;;;;10.31;70.10;99797.47;4953007;28;20027;-73
2022/06/03 01:37:00;;;;;;;4.68;4.20;;;;;;;10.29;70.06;99792.28;4972134;28;20437;-74
2022/06/03 01:39:44;;;;;;;4.32;3.78;;;;;;;10.25;70.51;99792.47;4989870;28;20126;-74
2022/06/03 01:42:15;;;;;;;4.03;3.00;;;;;;;10.23;70.19;99784.63;4974884;28;20050;-73
2022/06/03 01:45:08;;;;;;;6.53;3.42;;;;;;;10.25;70.08;99789.81;4972369;28;20042;-73
2022/06/03 01:47:42;;;;;;;3.75;3.30;;;;;;;10.25;70.04;99777.50;4988822;28;20037;-74
2022/06/03 01:50:34;;;;;;;4.97;4.07;;;;;;;10.17;70.38;99784.09;4989936;28;20034;-75
2022/06/03 01:53:16;;;;;;;5.70;4.20;;;;;;;10.18;70.34;99777.88;4990788;28;20109;-75
2022/06/03 01:55:45;;;;;;;5.20;3.70;;;;;;;10.18;70.64;99780.50;4990549;28;20081;-75
2022/06/03 01:58:28;;;;;;;8.63;3.88;;;;;;;10.21;70.81;99775.09;4972606;28;20525;-75
2022/06/03 02:01:15;;;;;;;5.82;3.35;;;;;;;10.19;70.66;99771.66;4990685;28;20041;-75
2022/06/03 02:04:03;;;;;;;6.03;3.50;;;;;;;10.22;70.53;99776.81;4991015;28;20045;-75
2022/06/03 02:07:06;;;;;;;6.85;3.70;;;;;;;10.20;70.48;99776.03;4992731;28;20030;-75
2022/06/03 02:09:41;;;;;;;5.47;3.90;;;;;;;10.11;70.47;99769.41;5002646;28;20193;-75
2022/06/03 02:12:24;;;;;;;7.82;4.15;;;;;;;10.01;71.15;99773.41;5006428;28;20034;-75
2022/06/03 02:14:50;;;;;;;6.35;3.80;;;;;;;9.90;71.43;99773.91;5011508;28;20038;-76
2022/06/03 02:17:33;;;;;;;5.13;3.40;;;;;;;9.85;71.51;99773.28;5012496;28;20029;-75
2022/06/03 02:20:26;;;;;;;6.50;4.03;;;;;;;9.94;71.31;99778.09;4996713;28;20371;-73
2022/06/03 02:22:52;;;;;;;4.38;3.83;;;;;;;9.90;71.01;99781.81;5008872;28;20083;-76
2022/06/03 02:25:35;;;;;;;5.50;3.90;;;;;;;9.83;71.62;99775.97;4991088;28;20042;-75
2022/06/03 02:28:45;;;;;;;6.20;4.15;;;;;;;9.73;72.26;99764.16;5008755;28;20161;-75
2022/06/03 02:31:24;;;;;;;4.40;3.38;;;;;;;9.70;72.27;99756.41;4971395;28;20040;-74
2022/06/03 02:34:07;;;;;;;4.30;3.30;;;;;;;9.76;71.58;99752.63;4991326;28;20033;-75
2022/06/03 02:37:03;;;;;;;6.40;3.63;;;;;;;9.68;72.46;99756.47;4990820;28;20038;-75
2022/06/03 02:39:31;;;;;;;5.43;3.83;;;;;;;9.66;72.19;99749.56;5008749;28;20030;-74
2022/06/03 02:42:34;;;;;;;4.88;3.55;;;;;;;9.67;72.17;99751.25;5008858;28;20085;-75
2022/06/03 02:45:28;;;;;;;4.15;3.00;;;;;;;9.73;71.72;99758.91;4991039;28;20121;-72
2022/06/03 02:48:35;;;;;;;6.20;3.60;;;;;;;9.76;72.04;99755.25;5009427;28;20660;-73
2022/06/03 02:51:31;;;;;;;4.10;3.40;;;;;;;9.74;71.26;99746.56;4932438;29;20072;-75
2022/06/03 02:54:18;;;;;;;4.63;3.08;;;;;;;9.71;71.52;99752.84;4932158;29;20547;-74
2022/06/03 02:56:43;;;;;;;4.47;3.20;;;;;;;9.70;71.47;99750.28;4995702;28;20050;-74
2022/06/03 02:59:31;;;;;;;4.07;3.47;;;;;;;9.68;71.94;99758.25;5011876;28;20332;-71
2022/06/03 03:02:12;;;;;;;6.15;4.30;;;;;;;9.58;71.81;99751.72;5011722;28;20069;-71
2022/06/03 03:05:15;;;;;;;4.57;3.45;;;;;;;9.51;72.72;99752.91;5011548;28;20640;-74
2022/06/03 03:08:18;;;;;;;4.35;3.75;;;;;;;9.52;72.57;99755.44;5011015;28;20616;-74
2022/06/03 03:11:03;;;;;;;7.15;3.70;;;;;;;9.46;73.00;99751.31;4980760;28;20371;-72
2022/06/03 03:14:30;;;;;;;4.68;3.72;;;;;;;9.48;72.36;99753.91;5011741;28;20056;-72
2022/06/03 03:17:18;;;;;;;4.85;3.60;;;;;;;9.46;72.17;99750.47;4931085;29;20309;-72
2022/06/03 03:20:34;;;;;;;5.68;3.75;;;;;;;9.45;72.60;99749.63;5011076;28;20044;-73
2022/06/03 03:23:10;;;;;;;5.70;3.15;;;;;;;9.50;71.91;99745.91;4948278;28;20367;-72
2022/06/03 03:25:54;;;;;;;;;;;;;;;9.46;72.27;99740.81;4992422;28;20022;-73
2022/06/03 03:28:40;;;;;;;4.50;2.97;;;;;;;9.46;72.19;99738.19;4991280;28;19918;-72
2022/06/03 03:31:52;;;;;;;5.30;3.33;;;;;;;9.39;73.16;99735.88;5000952;28;20044;-73
2022/06/03 03:34:27;;;;;;;5.13;3.20;;;;;;;9.40;72.58;99745.47;5010043;28;20037;-73
2022/06/03 03:37:23;;;;;;;3.90;2.92;;;;;;;9.42;73.13;99748.91;5010799;28;20084;-73
2022/06/03 03:40:08;;;;;;;5.28;3.72;;;;;;;9.45;72.51;99740.88;5011269;28;20036;-74
2022/06/03 03:42:43;;;;;;;3.72;3.13;;;;;;;9.48;72.68;99745.16;5011561;28;20030;-74
2022/06/03 03:45:11;;;;;;;4.13;3.03;;;;;;;9.51;72.34;99750.28;5010628;28;20037;-74
2022/06/03 03:47:59;;;;;;;4.55;3.17;;;;;;;9.53;72.53;99738.75;5010205;28;20095;-74
2022/06/03 03:50:49;;;;;;;3.30;2.88;;;;;;;9.55;71.76;99734.28;5000432;28;20033;-73
2022/06/03 03:53:49;;;;;;;15.48;3.58;;;;;;;9.59;72.51;99737.63;5010920;28;20561;-74
2022/06/03 03:57:00;;;;;;;3.45;2.65;;;;;;;9.55;72.09;99738.66;5009820;28;20121;-76
2022/06/03 03:59:50;;;;;;;4.88;3.03;;;;;;;9.54;72.04;99732.56;5009618;28;20631;-76
2022/06/03 04:02:51;;;;;;;4.78;3.22;;;;;;;9.56;72.17;99732.50;5010861;28;20038;-76
2022/06/03 04:05:38;;;;;;;5.22;2.97;;;;;;;9.59;72.21;99733.19;5010841;28;20117;-77
2022/06/03 04:08:25;;;;;;;7.15;2.97;;;;;;;9.54;72.65;99729.94;4992967;28;20105;-74
2022/06/03 04:11:03;;;;;;;3.70;2.60;;;;;;;9.63;72.06;99729.50;4990831;28;20038;-74
2022/06/03 04:13:54;;;;;;;3.70;2.78;;;;;;;9.67;72.08;99728.44;4991058;28;20045;-75
2022/06/03 04:16:38;;;;;;;3.75;2.58;;;;;;;9.72;72.14;99727.38;4986727;28;20573;-76
2022/06/03 04:19:52;;;;;;;2.75;2.38;;;;;;;9.77;72.19;99728.00;4974437;28;20445;-76
2022/06/03 04:22:36;;;;;;;4.53;3.22;;;;;;;9.79;71.42;99715.63;4915525;28;20402;-74
2022/06/03 04:25:23;;;;;;;4.20;3.08;;;;;;;9.82;71.73;99715.47;4990919;28;20054;-72
2022/06/03 04:27:48;;;;;;;4.53;2.70;;;;;;;9.86;71.93;99717.88;4990608;28;20037;-75
2022/06/03 04:30:32;;;;;;;4.15;3.17;;;;;;;9.92;71.53;99721.16;4991058;28;20030;-73
2022/06/03 04:33:12;;;;;;;4.93;3.40;;;;;;;9.99;71.92;99709.41;4990955;28;20038;-73
2022/06/03 04:36:14;;;;;;;5.20;3.55;;;;;;;10.04;71.56;99716.19;4990986;28;20034;-73
2022/06/03 04:39:17;;;;;;;3.92;3.10;;;;;;;10.16;71.71;99719.13;4990528;28;20066;-73
2022/06/03 04:42:07;;;;;;;3.58;2.88;;;;;;;10.32;71.18;99718.34;4972943;28;20078;-74
2022/06/03 04:45:11;;;;;;;4.28;2.80;;;;;;;10.46;70.63;99728.22;4991024;28;20271;-73
2022/06/03 04:48:13;;;;;;;3.45;2.45;;;;;;;10.57;70.50;99726.81;4968787;28;20030;-71
2022/06/03 04:51:03;;;;;;;4.30;2.90;;;;;;;10.65;70.57;99722.00;4971753;28;20465;-72
2022/06/03 04:54:06;;;;;;;4.63;2.95;;;;;;;10.79;70.08;99724.78;4974847;28;20031;-73
2022/06/03 04:56:59;;;;;;;6.15;3.22;;;;;;;10.94;70.09;99718.72;4973848;28;20026;-75
2022/06/03 04:59:55;;;;;;;2.97;2.58;;;;;;;11.07;70.10;99718.94;4992266;28;20031;-77
2022/06/03 05:02:24;;;;;;;5.45;3.75;;;;;;;11.22;69.23;99711.16;4992375;28;20042;-77
2022/06/03 05:05:17;;;;;;;4.05;2.78;;;;;;;11.38;69.17;99714.69;4992039;28;20104;-74
2022/06/03 05:07:54;;;;;;;4.90;3.40;;;;;;;11.56;68.96;99715.47;4972362;28;20633;-74
2022/06/03 05:10:23;;;;;;;7.40;3.70;;;;;;;11.71;68.06;99708.50;4998079;28;20085;-75
2022/06/03 05:13:19;;;;;;;5.57;3.05;;;;;;;11.91;68.15;99695.09;4994099;28;20035;-73
2022/06/03 05:15:57;;;;;;;5.93;2.40;;;;;;;12.12;67.74;99703.56;4975100;28;20034;-74
2022/06/03 05:18:41;;;;;;;5.72;2.85;;;;;;;12.31;66.83;99705.19;4991886;28;20045;-75
2022/06/03 05:22:02;;;;;;;4.68;3.05;;;;;;;12.44;66.77;99703.50;4992477;28;20088;-76
2022/06/03 05:24:52;;;;;;;4.40;2.80;;;;;;;12.62;66.72;99698.94;4929979;29;20039;-74
2022/06/03 05:27:37;;;;;;;7.38;3.00;;;;;;;12.78;65.62;99690.94;4971788;28;20042;-73
2022/06/03 05:30:11;;;;;;;5.65;3.17;;;;;;;12.93;64.71;99686.53;4990206;28;20035;-74
2022/06/03 05:32:52;;;;;;;3.50;2.40;;;;;;;13.20;64.46;99689.28;4989756;28;20080;-73
2022/06/03 05:35:35;;;;;;;7.22;3.22;;;;;;;13.67;62.79;99685.50;4972811;28;20403;-77
2022/06/03 05:38:07;;;;;;;5.30;3.33;;;;;;;14.28;62.28;99675.34;4990063;28;20027;-76
2022/06/03 05:40:42;;;;;;;6.03;2.97;;;;;;;14.83;60.23;99682.28;4991282;28;20034;-75
2022/06/03 05:43:26;;;;;;;4.00;3.10;;;;;;;15.02;60.80;99668.59;4991359;28;20038;-76
2022/06/03 05:45:54;;;;;;;6.70;3.30;;;;;;;15.20;56.69;99669.09;4992213;28;20045;-75
2022/06/03 05:48:23;;;;;;;6.40;3.15;;;;;;;15.31;57.73;99671.84;4991117;28;20114;-77
2022/06/03 05:51:04;;;;;;;7.15;2.65;;;;;;;15.42;56.70;99674.59;4990758;28;20034;-74
2022/06/03 05:53:44;;;;;;;4.25;2.40;;;;;;;15.59;55.61;99678.69;4972544;28;20041;-76
2022/06/03 05:56:29;;;;;;;3.22;2.13;;;;;;;15.78;54.85;99680.06;4989400;28;20034;-76
2022/06/03 05:59:33;;;;;;;6.20;3.00;;;;;;;15.95;55.37;99686.78;4990237;28;20038;-76
2022/06/03 06:02:19;;;;;;;7.18;3.03;;;;;;;16.09;52.62;99676.84;4992293;28;20493;-78
2022/06/03 06:05:06;;;;;;;6.35;2.35;;;;;;;16.30;52.38;99677.06;4989168;28;20062;-76
2022/06/03 06:08:01;;;;;;;3.30;1.80;;;;;;;16.50;52.22;99672.91;4973443;28;20422;-77
2022/06/03 06:10:32;;;;;;;2.85;1.52;;;;;;;16.69;51.41;99677.69;4992498;28;20141;-77
2022/06/03 06:13:32;;;;;;;3.33;2.15;;;;;;;16.81;50.01;99675.94;4973042;28;20034;-77
2022/06/03 06:16:21;;;;;;;4.38;2.00;;;;;;;17.02;50.24;99675.25;4945228;28;20068;-75
2022/06/03 06:19:13;;;;;;;6.68;2.40;;;;;;;17.11;49.09;99669.19;4989243;28;20381;-76
2022/06/03 06:22:05;;;;;;;3.42;2.03;;;;;;;17.26;48.93;99678.66;4961189;28;20034;-76
2022/06/03 06:24:51;;;;;;;5.93;1.90;;;;;;;17.35;48.74;99677.94;4993478;28;20031;-75
2022/06/03 06:27:37;;;;;;;4.50;2.10;;;;;;;17.46;48.31;99685.06;4992849;28;20038;-76
2022/06/03 06:30:17;;;;;;;4.35;2.22;;;;;;;17.60;48.64;99682.16;4994237;28;20118;-75
2022/06/03 06:32:52;;;;;;;3.35;2.08;;;;;;;17.67;48.09;99673.63;4977351;28;20045;-74
2022/06/03 06:35:35;;;;;;;2.90;2.25;;;;;;;17.77;47.12;99680.78;4976232;28;20054;-75
2022/06/03 06:38:30;;;;;;;5.85;2.25;;;;;;;17.89;47.51;99678.13;4992284;28;20035;-74
2022/06/03 06:41:17;;;;;;;4.85;2.08;;;;;;;18.02;46.45;99681.50;4982174;28;20042;-74
2022/06/03 06:43:50;;;;;;;3.85;1.80;;;;;;;18.19;46.82;99686.28;4992619;28;20062;-75
2022/06/03 06:46:26;;;;;;;2.22;1.67;;;;;;;18.15;46.17;99684.84;4991992;28;20030;-73
2022/06/03 06:49:12;;;;;;;4.38;1.88;;;;;;;18.21;46.03;99686.13;4992488;28;20031;-74
2022/06/03 06:52:05;;;;;;;3.72;2.10;;;;;;;18.34;45.66;99688.66;4992192;28;20125;-75
2022/06/03 06:54:45;;;;;;;4.82;1.88;;;;;;;18.45;44.86;99680.59;4975203;28;20031;-75
2022/06/03 06:57:23;;;;;;;4.35;1.88;;;;;;;18.61;44.77;99693.50;4974331;28;20057;-75
2022/06/03 07:00:19;;;;;;;5.85;1.83;;;;;;;18.75;44.45;99682.47;4992508;28;20050;-76
2022/06/03 07:02:58;;;;;;;;;;;;;;;18.75;43.74;99685.16;4992581;28;20038;-74
2022/06/03 07:05:32;;;;;;;2.28;1.65;;;;;;;18.84;44.09;99671.06;4992308;28;20377;-75
2022/06/03 07:08:14;;;;;;;4.25;2.42;;;;;;;18.98;43.92;99667.22;4991934;28;20038;-75
2022/06/03 07:10:42;;;;;;;3.58;2.08;;;;;;;19.09;43.37;99664.44;4992335;28;20045;-74
2022/06/03 07:13:12;;;;;;;2.75;1.77;;;;;;;19.22;43.17;99664.25;4975112;28;20045;-77
2022/06/03 07:15:52;;;;;;;2.60;1.77;;;;;;;19.40;42.71;99659.09;4991872;28;20030;-73
2022/06/03 07:21:18;;;;;;;4.13;2.33;;;;;;;19.61;43.81;99651.00;4992230;28;20049;-74
2022/06/03 07:23:48;;;;;;;4.95;2.38;;;;;;;19.89;43.45;99651.25;4993530;28;20612;-75
2022/06/03 07:26:37;;;;;;;5.28;2.70;;;;;;;19.98;42.93;99653.06;4991424;28;20491;-75
2022/06/03 07:29:11;;;;;;;4.25;1.98;;;;;;;20.27;42.13;99655.75;5004065;28;20038;-75
2022/06/03 07:31:43;;;;;;;2.72;1.83;;;;;;;20.54;41.05;99647.00;5012529;28;20064;-76
2022/06/03 07:34:11;;;;;;;3.85;1.95;;;;;;;20.90;40.26;99641.91;4994865;28;20045;-76
2022/06/03 07:36:54;;;;;;;3.83;1.95;;;;;;;21.30;39.95;99637.25;5012890;28;20030;-77
2022/06/03 07:39:35;;;;;;;7.47;2.38;;;;;;;21.53;39.52;99633.19;5015309;28;20052;-75
2022/06/03 07:42:18;;;;;;;4.75;2.58;;;;;;;21.77;38.86;99635.31;5011895;28;20117;-77
2022/06/03 07:44:56;;;;;;;3.38;1.73;;;;;;;21.97;38.03;99622.59;5011087;28;20370;-76
2022/06/03 07:47:26;;;;;;;4.00;2.22;;;;;;;22.09;37.99;99628.59;5010863;28;20048;-77
2022/06/03 07:49:57;;;;;;;3.70;2.08;;;;;;;21.92;38.54;99622.22;4994357;28;20076;-77
2022/06/03 07:52:32;;;;;;;2.45;1.73;;;;;;;21.91;38.67;99623.22;4994371;28;20124;-73
2022/06/03 07:54:59;;;;;;;3.53;2.08;;;;;;;21.82;38.21;99616.09;4992253;28;20102;-74
2022/06/03 07:57:27;;;;;;;4.25;1.92;;;;;;;21.88;38.77;99615.50;4992477;28;20036;-75
2022/06/03 08:00:06;;;;;;;35.13;9.63;;;;;;;22.00;38.30;99608.91;4991149;28;20120;-76
2022/06/03 08:02:31;;;;;;;11.07;2.80;;;;;;;22.25;37.99;99598.41;4991412;28;20496;-76
2022/06/03 08:05:11;;;;;;;2.67;1.90;;;;;;;22.06;37.84;99599.38;4992015;28;20069;-76
2022/06/03 08:13:16;;;;;;;6.60;2.38;;;;;;;22.00;37.63;99595.47;4993701;28;20045;-73
2022/06/03 08:15:53;;;;;;;2.25;1.75;;;;;;;22.08;38.15;99592.84;4997615;28;20038;-57
2022/06/03 08:18:20;;;;;;;4.32;2.33;;;;;;;21.93;37.65;99594.41;5004715;28;20030;-61
2022/06/03 08:20:52;;;;;;;3.30;1.92;;;;;;;21.95;38.27;99588.84;5010908;28;20480;-60
2022/06/03 08:23:20;;;;;;;3.50;2.15;;;;;;;22.25;37.17;99590.34;4993107;28;20393;-60
2022/06/03 08:25:48;;;;;;;6.60;2.10;;;;;;;22.25;36.88;99593.03;5011107;28;20125;-60
2022/06/03 08:28:20;;;;;;;2.67;2.13;;;;;;;22.20;37.04;99598.00;4993793;28;20083;-60
2022/06/03 08:30:49;;;;;;;7.65;2.53;;;;;;;22.06;36.97;99591.31;5008638;28;20034;-60
2022/06/03 08:33:18;;;;;;;2.95;1.60;;;;;;;22.18;37.41;99589.25;4992947;28;20435;-59
2022/06/03 08:35:46;;;;;;;5.18;2.65;;;;;;;22.24;36.74;99594.00;4973503;28;20037;-59
2022/06/03 08:38:17;;;;;;;7.07;1.98;;;;;;;22.21;36.22;99603.22;5002866;28;20045;-59
2022/06/03 08:41:13;;;;;;;2.90;2.03;;;;;;;22.14;36.70;99598.59;5008474;28;20042;-60
2022/06/03 08:43:57;;;;;;;4.88;1.80;;;;;;;22.06;35.98;99602.06;5008263;28;20038;-52
2022/06/03 08:46:34;;;;;;;4.97;1.95;;;;;;;22.19;36.00;99604.34;5003753;28;20128;-56
2022/06/03 08:49:02;;;;;;;5.40;1.90;;;;;;;22.26;36.67;99603.59;5005508;28;20096;-54
2022/06/03 08:51:38;;;;;;;3.47;1.90;;;;;;;22.52;35.78;99610.88;5004735;28;20034;-56
2022/06/03 08:54:35;;;;;;;3.20;1.98;;;;;;;22.77;35.59;99614.56;5005532;28;20104;-55
2022/06/03 08:57:08;;;;;;;5.72;2.10;;;;;;;22.97;34.78;99611.66;5004720;28;20042;-56
2022/06/03 08:59:42;;;;;;;2.80;1.80;;;;;;;23.06;33.95;99610.72;5003788;28;20140;-54
2022/06/03 09:02:11;;;;;;;6.53;2.42;;;;;;;23.52;33.47;99622.00;5005185;28;20041;-55
2022/06/03 09:05:02;;;;;;;3.00;2.17;;;;;;;24.19;32.47;99614.78;5005107;28;20087;-59
2022/06/03 09:08:05;;;;;;;3.85;2.25;;;;;;;24.33;31.39;99610.56;5004621;28;20527;-71
2022/06/03 09:10:41;;;;;;;7.72;2.45;;;;;;;24.46;31.15;99607.38;4987099;28;20652;-72
2022/06/03 09:13:19;;;;;;;9.18;2.08;;;;;;;24.79;30.82;99620.84;4997340;28;20038;-71
2022/06/03 09:15:46;;;;;;;15.75;4.13;;;;;;;25.16;30.02;99622.09;4985587;28;20038;-71
2022/06/03 09:18:25;;;;;;;9.60;2.60;;;;;;;25.60;29.29;99608.94;4984630;28;20045;-71
2022/06/03 09:21:03;;;;;;;5.80;2.25;;;;;;;26.03;28.70;99617.47;4985691;28;20073;-70
2022/06/03 09:23:54;;;;;;;4.18;1.90;;;;;;;26.13;28.39;99606.44;4967931;28;20045;-71
2022/06/03 09:26:31;;;;;;;3.85;2.03;;;;;;;25.91;28.84;99600.00;4984759;28;20042;-74
2022/06/03 09:29:00;;;;;;;4.20;1.77;;;;;;;26.27;28.64;99602.94;4985148;28;20073;-73
2022/06/03 09:31:26;;;;;;;4.75;1.98;;;;;;;26.17;29.17;99609.63;4985208;28;20068;-73
2022/06/03 09:33:54;;;;;;;4.35;1.98;;;;;;;25.81;28.75;99605.59;4985699;28;20508;-73
2022/06/03 09:36:21;;;;;;;2.97;2.00;;;;;;;25.98;28.72;99603.69;4985537;28;20077;-71
2022/06/03 09:39:09;;;;;;;2.85;1.80;;;;;;;26.05;28.26;99601.94;5004613;28;20120;-73
2022/06/03 09:41:40;;;;;;;5.95;2.33;;;;;;;25.53;29.10;99609.84;5005595;28;20034;-71
2022/06/03 09:44:09;;;;;;;3.13;2.33;;;;;;;25.41;29.51;99610.22;4996011;28;20038;-75
2022/06/03 09:46:37;;;;;;;2.95;2.00;;;;;;;25.56;29.54;99602.22;4994149;28;20527;-74
2022/06/03 09:49:05;;;;;;;8.50;2.42;;;;;;;25.83;28.79;99606.28;4995005;28;20069;-72
2022/06/03 09:51:56;;;;;;;5.68;2.08;;;;;;;26.08;28.86;99595.34;4999101;28;20034;-73
2022/06/03 09:54:43;;;;;;;3.65;2.55;;;;;;;25.98;28.66;99598.28;5019594;28;20829;-73
2022/06/03 09:57:16;;;;;;;5.40;1.88;;;;;;;25.41;29.26;99602.13;5005446;28;20042;-71
2022/06/03 09:59:54;;;;;;;4.50;1.60;;;;;;;25.43;29.59;99600.09;4990565;28;20056;-72
2022/06/03 10:02:20;;;;;;;7.00;3.08;;;;;;;25.16;29.37;99590.56;4974378;28;20050;-70
2022/06/03 10:04:45;;;;;;;4.82;2.75;;;;;;;25.24;29.37;99601.34;4989023;28;20044;-74
2022/06/03 10:07:11;;;;;;;11.15;7.65;;;;;;;25.26;29.18;99595.78;4988337;28;20034;-73
2022/06/03 10:12:49;;;;;;;7.47;3.97;;;;;;;25.45;29.93;99597.22;4989022;28;20069;-73
2022/06/03 10:18:09;;;;;;;3.47;2.33;;;;;;;24.71;31.88;99596.56;4988525;28;20050;-72
2022/06/03 10:20:35;;;;;;;5.55;2.05;;;;;;;24.58;31.63;99602.50;4989672;28;20034;-72
2022/06/03 10:23:09;;;;;;;13.48;2.80;;;;;;;24.46;32.14;99598.47;4978611;28;20580;-73
2022/06/03 10:25:43;;;;;;;7.68;2.50;;;;;;;24.14;31.88;99602.81;4988035;28;20635;-72
2022/06/03 10:28:10;;;;;;;3.17;2.05;;;;;;;23.78;32.00;99592.34;4987563;28;20476;-72
2022/06/03 10:30:41;;;;;;;4.38;2.40;;;;;;;23.65;32.46;99586.56;4988228;28;20034;-71
2022/06/03 10:33:15;;;;;;;3.92;2.63;;;;;;;24.25;32.60;99594.41;4988881;28;20034;-70
2022/06/03 10:35:41;;;;;;;3.92;2.08;;;;;;;24.43;32.35;99586.16;4978710;28;20046;-72
2022/06/03 10:38:07;;;;;;;2.97;1.88;;;;;;;24.50;32.44;99584.50;4970092;28;20401;-71
2022/06/03 10:40:35;;;;;;;8.07;3.13;;;;;;;24.26;33.05;99584.47;4989127;28;20038;-73
2022/06/03 10:43:03;;;;;;;11.77;2.70;;;;;;;24.26;33.26;99585.31;4988667;28;20041;-71
2022/06/03 10:45:37;;;;;;;12.55;2.65;;;;;;;24.32;32.68;99586.50;4988168;28;20086;-72
2022/06/03 10:48:20;;;;;;;4.35;3.15;;;;;;;24.26;33.09;99579.91;4986971;28;20052;-71
2022/06/03 10:50:45;;;;;;;4.72;2.47;;;;;;;24.48;32.27;99574.88;4987864;28;20104;-71
2022/06/03 11:01:51;;;;;;;4.45;2.10;;;;;;;23.64;34.33;99580.34;5007162;28;20057;-71
2022/06/03 11:04:33;;;;;;;2.50;1.73;;;;;;;23.42;34.55;99586.34;5007457;28;20095;-72
2022/06/03 11:07:01;;;;;;;10.15;2.22;;;;;;;23.29;34.08;99584.94;4995602;28;20496;-71
2022/06/03 11:09:27;;;;;;;2.90;1.83;;;;;;;23.36;34.04;99577.91;4986795;28;20049;-72
2022/06/03 11:12:04;;;;;;;5.20;2.38;;;;;;;23.42;33.76;99570.19;4987656;28;20043;-71
2022/06/03 11:14:32;;;;;;;2.88;1.70;;;;;;;23.46;33.99;99566.19;4987698;28;20038;-72
2022/06/03 11:17:15;;;;;;;5.80;1.63;;;;;;;23.53;33.53;99553.75;4987868;28;20042;-72
2022/06/03 11:19:45;;;;;;;6.47;2.72;;;;;;;23.43;33.09;99547.66;4988158;28;20046;-71
2022/06/03 11:22:16;;;;;;;5.15;2.10;;;;;;;23.32;33.76;99541.56;4988131;28;20037;-74
2022/06/03 11:24:49;;;;;;;8.32;2.78;;;;;;;23.42;33.51;99540.59;4988022;28;20823;-71
2022/06/03 11:27:17;;;;;;;6.07;2.28;;;;;;;23.47;33.79;99543.63;4988442;28;20046;-72
2022/06/03 11:29:45;;;;;;;3.63;2.08;;;;;;;23.44;34.06;99538.59;4995515;28;20057;-73
2022/06/03 11:32:13;;;;;;;11.77;2.70;;;;;;;23.45;34.44;99535.72;4989499;28;20124;-70
2022/06/03 11:34:44;;;;;;;9.93;3.60;;;;;;;23.25;34.96;99534.31;5005020;28;20045;-69
2022/06/03 11:37:17;;;;;;;7.68;2.80;;;;;;;23.26;34.99;99536.00;5003327;28;20045;-70
2022/06/03 11:39:53;;;;;;;4.13;2.42;;;;;;;23.26;35.49;99536.88;5005201;28;20169;-71
2022/06/03 11:42:24;;;;;;;6.40;2.97;;;;;;;23.32;35.98;99536.19;5006669;28;20046;-69
2022/06/03 11:44:58;;;;;;;11.00;3.55;;;;;;;23.35;35.95;99526.94;5005861;28;20405;-70
2022/06/03 11:47:27;;;;;;;11.15;3.30;;;;;;;23.33;36.31;99526.25;5006168;28;20137;-70
2022/06/03 11:49:54;;;;;;;14.50;3.83;;;;;;;23.33;36.37;99529.81;5006215;28;20033;-70
2022/06/03 11:52:22;;;;;;;9.80;3.58;;;;;;;23.46;36.13;99515.06;5004429;28;20186;-69
2022/06/03 11:54:48;;;;;;;14.18;3.75;;;;;;;23.37;36.42;99516.88;4986466;28;20402;-71
2022/06/03 11:57:14;;;;;;;9.20;3.13;;;;;;;23.44;36.32;99527.81;4985874;28;20131;-70
2022/06/03 11:59:47;;;;;;;5.32;2.42;;;;;;;23.57;35.91;99531.69;4969369;28;20454;-69
2022/06/03 12:02:12;;;;;;;5.88;2.92;;;;;;;23.51;36.13;99523.47;4986697;28;20037;-70
2022/06/03 12:05:00;;;;;;;7.03;3.25;;;;;;;23.60;36.07;99527.00;4987357;28;20034;-70
2022/06/03 12:07:44;;;;;;;11.43;3.28;;;;;;;23.50;35.81;99522.59;4986609;28;20553;-70
2022/06/03 12:10:18;;;;;;;9.80;4.13;;;;;;;23.42;35.56;99527.16;4986791;28;20379;-70
2022/06/03 12:15:31;;;;;;;13.15;3.40;;;;;;;23.38;36.06;99525.78;4986638;28;20477;-71
2022/06/03 12:17:58;;;;;;;7.13;2.70;;;;;;;23.48;35.94;99523.78;4985578;28;20042;-70
2022/06/03 12:20:29;;;;;;;7.63;3.63;;;;;;;23.52;35.54;99530.53;4985369;28;20062;-70
2022/06/03 12:22:55;;;;;;;5.70;2.75;;;;;;;23.49;35.92;99528.16;4985859;28;20111;-73
2022/06/03 12:25:43;;;;;;;6.22;2.30;;;;;;;23.54;35.93;99528.50;4985832;28;20498;-71
2022/06/03 12:28:22;;;;;;;7.50;2.70;;;;;;;23.55;35.63;99540.94;4985521;28;20089;-69
2022/06/03 12:30:55;;;;;;;15.38;3.83;;;;;;;23.41;35.79;99529.00;4986323;28;20144;-70
2022/06/03 12:34:08;;;;;;;8.55;3.45;;;;;;;23.43;35.78;99528.81;4986608;28;20053;-71
2022/06/03 12:36:52;;;;;;;7.00;2.72;;;;;;;23.45;35.49;99527.63;4950115;28;20473;-70
2022/06/03 12:39:33;;;;;;;8.68;3.38;;;;;;;23.64;35.34;99518.44;4986251;28;20074;-70
2022/06/03 12:42:12;;;;;;;11.27;2.35;;;;;;;23.65;35.18;99522.78;4986051;28;20730;-70
2022/06/03 12:44:47;;;;;;;11.93;6.65;;;;;;;23.81;34.84;99530.09;4975009;28;20044;-71
2022/06/03 12:47:18;;;;;;;10.57;3.10;;;;;;;24.02;34.66;99523.34;4992155;28;20097;-71
2022/06/03 12:49:44;;;;;;;8.77;2.92;;;;;;;24.18;34.59;99521.50;5003330;28;20486;-70
2022/06/03 12:52:35;;;;;;;11.60;4.72;;;;;;;24.27;34.44;99522.34;5004943;28;20088;-71
2022/06/03 12:55:09;;;;;;;7.40;3.53;;;;;;;24.15;34.35;99523.72;4992456;28;20080;-71
2022/06/03 12:57:52;;;;;;;9.82;2.70;;;;;;;24.11;34.43;99525.06;5004827;28;20025;-70
2022/06/03 13:00:18;;;;;;;7.22;2.75;;;;;;;24.15;34.37;99519.16;5001363;28;20046;-71
2022/06/03 13:02:59;;;;;;;11.48;2.75;;;;;;;24.13;33.94;99513.09;4987847;28;20048;-71
2022/06/03 13:05:27;;;;;;;7.95;3.90;;;;;;;24.13;34.48;99513.09;5005244;28;20485;-71